ΕΜΥ, Εθνική Μετεωρολογική Υπηρεσία - Δελτία Καιρού, Προγνώσεις

ΑΕΡΟΝΑΥΤΙΛΙΑ

GREEK AIRPORTS CODES

TAF LGLR 091400Z 0915/0924 08012KT 9999 FEW030 BECMG 0918/0920 VRB03KT=

EUROPEAN AIRPORTS CODES

LFPO 091400Z 05010KT 360V090 CAVOK 31/10 Q1023=